Time;durP1;ratioP1;P1;durP2;ratioP2;P2;SDS_P1;SDS_P2;PMS_P1;PMS_P2;Temp;Humidity;BMP_temperature;BMP_pressure;BME280_temperature;BME280_humidity;BME280_pressure;Samples;Min_cycle;Max_cycle;Signal;HPM_P1;HPM_P2
2020/12/15 00:02:13;;;;;;;4.00;2.10;;;10.70;81.90;;;10.00;70.12;99719.78;4950014;29;20161;-83
2020/12/15 00:04:41;;;;;;;7.22;1.92;;;10.70;81.80;;;10.02;70.81;99704.13;4951203;29;20051;-83
2020/12/15 00:07:08;;;;;;;6.07;2.03;;;10.70;82.40;;;10.03;70.76;99705.78;4951290;29;20051;-83
2020/12/15 00:09:35;;;;;;;4.78;2.30;;;10.70;82.00;;;10.01;70.67;99702.41;4949825;29;20087;-82
2020/12/15 00:12:02;;;;;;;3.25;1.75;;;10.70;83.00;;;10.03;70.21;99702.22;4951206;29;20074;-83
2020/12/15 00:14:29;;;;;;;4.30;2.17;;;10.70;82.00;;;10.05;71.50;99708.31;4951129;29;20051;-83
2020/12/15 00:16:59;;;;;;;4.28;2.10;;;10.70;82.80;;;10.05;71.29;99703.72;4951057;29;20051;-83
2020/12/15 00:19:27;;;;;;;5.28;2.35;;;10.80;82.50;;;10.08;71.70;99702.47;4949753;28;20109;-83
2020/12/15 00:21:54;;;;;;;4.95;2.00;;;10.80;83.20;;;10.09;71.55;99699.56;4951047;29;20122;-83
2020/12/15 00:24:21;;;;;;;4.90;2.03;;;10.70;83.20;;;10.08;72.56;99697.88;4951841;29;20051;-83
2020/12/15 00:26:48;;;;;;;4.10;2.00;;;10.70;83.60;;;10.10;72.34;99705.81;4952607;29;20071;-83
2020/12/15 00:29:17;;;;;;;5.35;1.98;;;10.70;84.10;;;10.08;70.42;99700.59;4953298;29;20121;-84
2020/12/15 00:31:44;;;;;;;5.38;2.35;;;10.70;82.50;;;10.11;72.43;99707.47;4953186;29;20047;-83
2020/12/15 00:34:11;;;;;;;5.63;2.10;;;10.70;83.70;;;10.05;71.16;99706.44;4953375;29;20058;-83
2020/12/15 00:36:38;;;;;;;3.75;1.90;;;10.70;82.70;;;10.04;70.23;99702.03;4952797;29;20130;-83
2020/12/15 00:39:05;;;;;;;7.13;2.17;;;10.80;83.10;;;10.07;71.47;99698.06;4950290;28;20087;-83
2020/12/15 00:41:32;;;;;;;5.50;2.35;;;10.80;83.00;;;10.09;71.80;99702.28;4948434;29;20098;-83
2020/12/15 00:43:59;;;;;;;5.35;2.10;;;10.80;83.10;;;10.09;72.20;99710.44;4949285;29;20078;-83
2020/12/15 00:46:26;;;;;;;3.90;1.90;;;10.70;82.90;;;10.08;71.07;99710.63;4947316;28;20102;-83
2020/12/15 00:48:53;;;;;;;3.88;1.90;;;10.70;82.20;;;10.09;72.18;99712.28;4949057;28;20043;-83
2020/12/15 00:51:21;;;;;;;5.25;2.40;;;10.80;83.30;;;10.09;70.90;99715.00;4950384;28;20106;-83
2020/12/15 00:53:50;;;;;;;5.47;2.10;;;10.80;82.50;;;10.07;70.66;99728.81;4948965;29;20071;-83
2020/12/15 00:56:20;;;;;;;;;;;10.80;83.00;;;10.06;71.28;99721.69;4949525;29;20055;-83
2020/12/15 00:58:47;;;;;;;5.15;2.00;;;10.80;83.00;;;10.09;72.46;99721.31;4949051;28;20303;-83
2020/12/15 01:01:15;;;;;;;5.65;1.95;;;10.80;83.40;;;10.05;72.83;99728.19;4948935;29;20058;-83
2020/12/15 01:03:44;;;;;;;3.70;1.90;;;10.80;83.60;;;10.04;73.10;99723.78;4948865;28;20147;-82
2020/12/15 01:06:17;;;;;;;4.78;2.42;;;10.70;84.10;;;10.08;73.75;99713.34;4948766;29;20505;-83
2020/12/15 01:08:46;;;;;;;4.30;2.20;;;10.70;84.60;;;10.09;73.95;99713.16;4948759;29;20051;-82
2020/12/15 01:11:12;;;;;;;5.35;2.30;;;10.70;84.90;;;10.04;74.35;99714.78;4948715;29;20799;-83
2020/12/15 01:13:39;;;;;;;4.43;2.25;;;10.60;85.10;;;10.05;74.75;99709.16;4948578;29;20051;-83
2020/12/15 01:16:07;;;;;;;4.90;2.60;;;10.60;85.70;;;10.01;75.19;99718.72;4948573;29;20054;-83
2020/12/15 01:18:35;;;;;;;7.13;2.45;;;10.60;86.20;;;10.03;75.43;99713.94;4948640;29;20141;-83
2020/12/15 01:21:04;;;;;;;4.80;2.20;;;10.50;86.60;;;10.02;75.64;99725.88;4948365;28;20077;-83
2020/12/15 01:23:31;;;;;;;10.60;2.40;;;10.50;86.90;;;9.99;75.85;99704.50;4948548;29;20043;-83
2020/12/15 01:26:02;;;;;;;;;;;10.50;86.90;;;9.96;76.20;99702.22;4951931;29;20039;-84
2020/12/15 01:28:30;;;;;;;4.35;2.20;;;10.40;87.30;;;9.95;76.35;99714.09;4968869;28;19973;-84
2020/12/15 01:30:57;;;;;;;5.93;2.65;;;10.50;87.50;;;9.92;76.57;99704.47;4953295;28;20067;-84
2020/12/15 01:33:30;;;;;;;3.70;2.00;;;10.40;87.50;;;9.92;76.96;99715.34;4953825;29;20319;-84
2020/12/15 01:36:12;;;;;;;5.18;2.20;;;10.40;87.80;;;9.90;76.88;99714.72;4951759;29;20106;-83
2020/12/15 01:38:53;;;;;;;5.68;2.58;;;10.40;88.10;;;9.87;77.35;99717.00;4951510;29;20051;-83
2020/12/15 01:41:21;;;;;;;4.00;2.20;;;10.30;88.70;;;9.78;77.72;99730.72;4949838;29;20043;-82
2020/12/15 01:43:55;;;;;;;5.78;2.42;;;10.30;88.60;;;9.79;77.68;99728.84;4948419;29;20059;-83
2020/12/15 01:46:26;;;;;;;4.57;2.60;;;10.30;88.80;;;9.78;77.83;99725.28;4948076;29;20051;-82
2020/12/15 01:48:53;;;;;;;6.55;2.45;;;10.30;88.90;;;9.78;77.71;99728.00;4948152;29;20047;-83
2020/12/15 01:51:21;;;;;;;5.68;2.60;;;10.20;89.20;;;9.81;78.05;99729.50;4948041;29;20109;-83
2020/12/15 01:53:55;;;;;;;6.05;2.53;;;10.20;89.30;;;9.75;78.11;99724.88;4948459;29;20054;-83
2020/12/15 01:56:25;;;;;;;6.28;2.63;;;10.20;89.20;;;9.74;78.38;99728.59;4948124;29;20572;-82
2020/12/15 01:58:55;;;;;;;5.00;2.47;;;10.20;89.30;;;9.75;78.68;99722.97;4947459;29;20048;-83
2020/12/15 02:01:24;;;;;;;5.22;2.22;;;10.20;89.80;;;9.74;78.69;99721.28;4948071;29;20098;-82
2020/12/15 02:03:53;;;;;;;6.25;2.58;;;10.20;89.90;;;9.75;78.69;99722.16;4948112;29;20057;-83
2020/12/15 02:06:44;;;;;;;5.43;2.70;;;10.20;90.10;;;9.70;78.94;99706.44;4948078;29;20051;-83
2020/12/15 02:09:13;;;;;;;4.95;2.47;;;10.10;90.40;;;9.75;78.79;99705.84;4948289;29;20047;-82
2020/12/15 02:11:46;;;;;;;6.55;3.10;;;10.10;90.60;;;9.73;78.65;99705.22;4948565;29;20062;-82
2020/12/15 02:14:14;;;;;;;6.20;2.45;;;10.10;90.60;;;9.72;78.92;99693.47;4948063;29;20576;-82
2020/12/15 02:16:49;;;;;;;5.95;2.72;;;10.10;91.00;;;9.73;79.00;99699.78;4948006;29;20039;-82
2020/12/15 02:19:18;;;;;;;5.13;2.40;;;10.10;91.20;;;9.75;79.13;99690.38;4947946;29;20051;-83
2020/12/15 02:21:52;;;;;;;8.13;3.08;;;10.10;91.30;;;9.73;79.33;99694.34;4947982;29;20058;-83
2020/12/15 02:24:19;;;;;;;6.00;3.00;;;10.10;91.40;;;9.68;79.18;99692.19;4947949;29;20131;-83
2020/12/15 02:26:56;;;;;;;6.82;2.65;;;10.10;91.20;;;9.67;79.41;99690.53;4947745;29;20047;-83
2020/12/15 02:29:31;;;;;;;6.60;2.50;;;10.10;91.40;;;9.63;79.69;99689.22;4947551;29;20402;-82
2020/12/15 02:31:58;;;;;;;6.38;3.10;;;10.10;91.30;;;9.66;79.58;99699.72;4947789;29;20043;-83
2020/12/15 02:34:30;;;;;;;7.50;2.80;;;10.00;91.40;;;9.66;79.58;99694.28;4947743;29;20055;-83
2020/12/15 02:36:57;;;;;;;5.82;2.60;;;10.10;91.40;;;9.65;79.62;99691.75;4947834;28;20106;-83
2020/12/15 02:39:43;;;;;;;5.32;2.70;;;10.10;91.50;;;9.67;79.66;99695.97;4947907;29;20055;-83
2020/12/15 02:42:22;;;;;;;6.30;2.90;;;10.10;91.60;;;9.65;79.78;99702.63;4947879;29;20414;-83
2020/12/15 02:44:49;;;;;;;5.20;2.90;;;10.10;91.70;;;9.66;79.87;99705.16;4947661;29;20170;-83
2020/12/15 02:47:23;;;;;;;5.80;2.63;;;10.10;91.70;;;9.66;79.81;99704.31;4947805;29;20516;-82
2020/12/15 02:49:50;;;;;;;7.10;3.28;;;10.10;91.80;;;9.68;80.02;99707.69;4949280;28;20054;-83
2020/12/15 02:52:19;;;;;;;5.68;2.80;;;10.00;92.10;;;9.70;79.80;99709.16;4947678;29;20061;-83
2020/12/15 02:54:50;;;;;;;;;;;10.00;92.20;;;9.71;79.98;99715.41;4948016;29;20674;-83
2020/12/15 02:57:17;;;;;;;9.00;2.80;;;10.10;92.40;;;9.70;80.40;99716.47;4949101;29;19934;-83
2020/12/15 02:59:46;;;;;;;4.47;2.60;;;10.10;92.30;;;9.63;80.48;99721.00;4947634;28;20086;-83
2020/12/15 03:02:21;;;;;;;4.60;2.53;;;10.10;92.20;;;9.65;80.39;99724.34;4947566;29;20053;-83
2020/12/15 03:04:53;;;;;;;7.07;2.50;;;10.10;92.30;;;9.67;80.56;99723.16;4947410;29;20061;-83
2020/12/15 03:07:21;;;;;;;5.70;2.70;;;10.10;92.60;;;9.63;80.77;99727.28;4947330;29;20177;-83
2020/12/15 03:09:52;;;;;;;5.45;2.70;;;10.10;92.40;;;9.64;80.88;99722.69;4948598;28;20432;-83
2020/12/15 03:12:25;;;;;;;7.18;2.80;;;10.10;92.60;;;9.65;80.64;99724.34;4951021;29;20095;-83
2020/12/15 03:14:55;;;;;;;7.03;2.67;;;10.10;92.60;;;9.60;81.26;99722.25;4950809;29;20079;-82
2020/12/15 03:17:24;;;;;;;5.43;2.70;;;10.10;92.40;;;9.63;81.05;99719.13;4950878;29;20039;-82
2020/12/15 03:19:52;;;;;;;5.57;2.88;;;10.10;92.50;;;9.63;81.07;99721.84;4950885;29;20130;-83
2020/12/15 03:22:20;;;;;;;7.97;2.88;;;10.10;92.60;;;9.69;80.92;99725.63;4950876;29;20055;-83
2020/12/15 03:24:52;;;;;;;6.13;3.40;;;10.10;92.80;;;9.66;81.16;99718.72;4950907;29;20054;-83
2020/12/15 03:27:23;;;;;;;5.60;3.10;;;10.10;92.90;;;9.62;81.45;99716.63;4950603;29;20043;-83
2020/12/15 03:29:50;;;;;;;7.05;2.83;;;10.10;93.10;;;9.62;81.64;99720.16;4950619;29;20508;-83
2020/12/15 03:32:17;;;;;;;6.35;3.08;;;10.10;93.10;;;9.67;81.27;99717.72;4950546;29;20548;-82
2020/12/15 03:34:44;;;;;;;4.93;2.65;;;10.10;93.70;;;9.68;81.16;99713.94;4950441;29;20047;-83
2020/12/15 03:37:11;;;;;;;7.07;3.15;;;10.10;93.30;;;9.64;81.46;99706.41;4951803;29;20528;-83
2020/12/15 03:39:46;;;;;;;6.07;2.78;;;10.10;93.20;;;9.66;81.47;99707.88;4951409;29;20051;-83
2020/12/15 03:42:30;;;;;;;5.57;2.88;;;10.10;93.40;;;9.68;81.30;99708.50;4952577;29;20576;-83
2020/12/15 03:44:56;;;;;;;6.28;3.17;;;10.10;93.40;;;9.66;81.29;99709.75;4952356;29;20051;-84
2020/12/15 03:47:23;;;;;;;7.50;3.28;;;10.10;93.30;;;9.65;81.49;99717.03;4952302;29;20378;-84
2020/12/15 03:49:50;;;;;;;5.50;3.25;;;10.10;93.20;;;9.62;81.66;99709.31;4952448;29;20047;-84
2020/12/15 03:52:17;;;;;;;5.40;2.60;;;10.10;93.30;;;9.65;81.73;99702.63;4952681;29;20097;-84
2020/12/15 03:55:05;;;;;;;8.20;3.40;;;10.10;93.30;;;9.64;81.38;99699.06;4951175;29;20059;-83
2020/12/15 03:57:47;;;;;;;5.95;3.25;;;10.10;93.10;;;9.68;81.54;99702.25;4950138;29;20051;-84
2020/12/15 04:00:28;;;;;;;6.05;3.25;;;10.10;93.40;;;9.63;81.57;99705.53;4950209;29;20061;-83
2020/12/15 04:03:06;;;;;;;5.88;3.13;;;10.10;93.10;;;9.63;81.26;99702.81;4950045;29;20043;-83
2020/12/15 04:05:59;;;;;;;6.60;3.58;;;10.10;92.90;;;9.62;81.52;99703.88;4948363;29;20055;-83
2020/12/15 04:08:30;;;;;;;6.68;3.40;;;10.10;92.80;;;9.62;81.45;99709.31;4949862;29;20051;-82
2020/12/15 04:10:59;;;;;;;6.85;3.13;;;10.10;92.80;;;9.66;81.11;99716.00;4949832;29;20509;-83
2020/12/15 04:13:37;;;;;;;5.38;3.15;;;10.10;92.90;;;9.64;81.37;99707.22;4951130;29;20059;-82
2020/12/15 04:16:08;;;;;;;6.65;3.40;;;10.10;93.10;;;9.65;81.14;99713.50;4949820;29;20051;-83
2020/12/15 04:18:41;;;;;;;6.57;3.40;;;10.10;93.20;;;9.66;81.50;99715.19;4949792;29;20150;-82
2020/12/15 04:21:13;;;;;;;6.20;3.72;;;10.00;93.40;;;9.64;81.37;99711.84;4948966;28;20067;-81
2020/12/15 04:23:43;;;;;;;6.68;3.70;;;10.10;93.20;;;9.65;81.35;99714.31;4949807;29;20133;-83
2020/12/15 04:26:12;;;;;;;9.45;3.30;;;10.10;93.10;;;9.68;81.10;99713.94;4949731;28;20051;-83
2020/12/15 04:28:47;;;;;;;6.07;3.85;;;10.10;93.10;;;9.62;81.27;99720.16;4951095;29;20039;-83
2020/12/15 04:31:14;;;;;;;6.70;3.53;;;10.10;92.90;;;9.64;81.30;99714.53;4949457;28;20051;-83
2020/12/15 04:33:41;;;;;;;8.38;3.47;;;10.10;93.00;;;9.68;81.52;99718.53;4949539;28;20058;-83
2020/12/15 04:36:09;;;;;;;6.90;3.90;;;10.10;93.10;;;9.65;81.08;99727.91;4950864;29;20050;-82
2020/12/15 04:38:36;;;;;;;9.70;3.63;;;10.10;93.00;;;9.68;81.01;99730.25;4949301;29;20055;-83
2020/12/15 04:41:13;;;;;;;7.85;4.07;;;10.10;93.00;;;9.62;81.38;99725.59;4949551;29;20058;-83
2020/12/15 04:43:45;;;;;;;6.95;3.63;;;10.10;92.80;;;9.66;81.30;99726.88;4949227;29;20051;-83
2020/12/15 04:46:19;;;;;;;6.65;4.05;;;10.10;92.70;;;9.65;81.33;99736.06;4948983;29;20130;-83
2020/12/15 04:49:04;;;;;;;6.25;3.47;;;10.10;92.90;;;9.72;80.82;99725.25;4949282;29;20047;-83
2020/12/15 04:52:03;;;;;;;5.88;3.55;;;10.10;92.90;;;9.69;80.98;99726.50;4950543;29;20046;-83
2020/12/15 04:54:51;;;;;;;6.70;4.03;;;10.10;93.00;;;9.70;81.01;99727.31;4965109;28;20051;-83
2020/12/15 04:57:28;;;;;;;7.97;4.30;;;10.10;92.80;;;9.70;81.49;99725.44;4949076;29;20075;-84
2020/12/15 04:59:59;;;;;;;6.97;3.90;;;10.10;92.90;;;9.70;81.33;99728.16;4948959;29;20150;-83
2020/12/15 05:02:42;;;;;;;8.18;3.95;;;10.10;93.00;;;9.72;81.19;99731.53;4948886;29;20125;-83
2020/12/15 05:05:10;;;;;;;6.63;3.97;;;10.10;93.30;;;9.76;81.11;99732.78;4948557;29;20138;-83
2020/12/15 05:07:40;;;;;;;8.07;4.30;;;10.10;93.40;;;9.73;81.17;99733.22;4948943;29;20568;-83
2020/12/15 05:10:14;;;;;;;6.85;3.90;;;10.10;93.50;;;9.71;81.70;99729.84;4948823;29;20735;-86
2020/12/15 05:13:00;;;;;;;8.10;4.63;;;10.10;93.80;;;9.72;81.21;99731.53;4948606;29;20078;-87
2020/12/15 05:15:29;;;;;;;8.18;4.05;;;10.10;93.60;;;9.74;81.53;99729.44;4948277;29;20067;-87
2020/12/15 05:18:02;;;;;;;7.28;4.03;;;10.10;93.80;;;9.74;81.29;99734.88;4964647;28;20146;-87
2020/12/15 05:20:33;;;;;;;7.15;3.70;;;10.10;93.90;;;9.69;81.61;99741.94;4948397;28;20133;-87
2020/12/15 05:23:18;;;;;;;7.13;3.90;;;10.10;93.70;;;9.69;81.45;99736.50;4948374;29;20051;-87
2020/12/15 05:25:45;;;;;;;7.00;4.05;;;10.10;93.30;;;9.73;81.72;99744.09;4949856;29;20042;-86
2020/12/15 05:28:16;;;;;;;10.32;4.63;;;10.20;93.60;;;9.70;81.66;99739.03;4948460;29;20055;-86
2020/12/15 05:31:00;;;;;;;9.45;4.75;;;10.20;93.40;;;9.75;81.11;99735.72;4948252;28;20051;-87
2020/12/15 05:33:33;;;;;;;9.20;4.88;;;10.20;93.20;;;9.72;81.58;99736.13;4949925;28;20051;-87
2020/12/15 05:36:20;;;;;;;8.15;4.40;;;10.20;93.30;;;9.75;81.41;99742.00;4949878;29;20055;-87
2020/12/15 05:39:08;;;;;;;6.13;3.90;;;10.20;93.30;;;9.79;81.66;99732.41;4929104;29;20059;-85
2020/12/15 05:42:02;;;;;;;7.45;3.70;;;10.20;93.60;;;9.75;81.61;99731.13;4964374;28;20150;-87
2020/12/15 05:44:31;;;;;;;7.60;3.90;;;10.20;93.70;;;9.79;81.66;99726.16;4947670;29;20134;-87
2020/12/15 05:47:02;;;;;;;6.78;4.03;;;10.20;93.80;;;9.79;81.99;99726.97;4948222;29;20110;-87
2020/12/15 05:49:32;;;;;;;7.45;4.00;;;10.20;93.90;;;9.79;81.55;99723.44;4948146;29;20055;-87
2020/12/15 05:51:59;;;;;;;6.55;4.03;;;10.20;93.80;;;9.79;81.94;99728.84;4949510;29;20047;-87
2020/12/15 05:54:27;;;;;;;5.82;3.83;;;10.20;94.00;;;9.78;81.69;99724.44;4949200;29;20189;-85
2020/12/15 05:57:02;;;;;;;7.88;3.83;;;10.20;94.10;;;9.83;81.83;99723.88;4932640;29;20135;-85
2020/12/15 05:59:30;;;;;;;6.50;3.63;;;10.20;94.20;;;9.81;81.94;99725.94;4930098;29;20040;-85
2020/12/15 06:02:08;;;;;;;7.97;4.00;;;10.20;94.30;;;9.82;82.07;99724.91;4928911;29;20062;-85
2020/12/15 06:04:37;;;;;;;6.93;3.60;;;10.20;94.50;;;9.79;82.16;99720.72;4928455;29;20058;-85
2020/12/15 06:07:06;;;;;;;7.05;4.07;;;10.20;94.60;;;9.81;82.34;99728.66;4930256;29;20074;-84
2020/12/15 06:09:34;;;;;;;8.10;4.10;;;10.20;94.60;;;9.78;82.40;99735.31;4930194;29;20130;-84
2020/12/15 06:12:02;;;;;;;6.28;3.63;;;10.20;94.70;;;9.77;82.74;99729.06;4930345;29;20075;-83
2020/12/15 06:14:30;;;;;;;6.70;3.83;;;10.20;94.70;;;9.77;82.35;99729.06;4928667;29;20148;-83
2020/12/15 06:16:57;;;;;;;7.45;4.00;;;10.20;94.80;;;9.76;82.73;99727.38;4930159;29;20580;-83
2020/12/15 06:19:24;;;;;;;7.65;4.10;;;10.20;94.90;;;9.78;82.46;99725.28;4934242;29;20047;-83
2020/12/15 06:21:56;;;;;;;7.10;4.03;;;10.20;94.80;;;9.79;82.93;99729.69;4964123;28;20043;-84
2020/12/15 06:24:24;;;;;;;;;;;10.20;94.90;;;9.78;82.65;99729.88;4969084;28;20143;-84
2020/12/15 06:26:57;;;;;;;6.65;3.72;;;10.20;94.90;;;9.81;82.61;99737.66;4968401;28;20473;-84
2020/12/15 06:29:36;;;;;;;6.80;4.10;;;10.20;94.90;;;9.83;82.68;99737.47;4968182;28;20862;-84
2020/12/15 06:32:08;;;;;;;7.90;3.90;;;10.20;94.90;;;9.78;82.87;99736.16;4968519;28;20047;-85
2020/12/15 06:34:39;;;;;;;6.63;3.88;;;10.20;94.90;;;9.79;83.10;99735.13;4967021;28;20405;-85
2020/12/15 06:37:09;;;;;;;6.90;4.07;;;10.20;95.00;;;9.82;82.85;99741.19;4968678;28;20047;-85
2020/12/15 06:39:36;;;;;;;8.52;4.40;;;10.20;95.00;;;9.83;83.07;99745.63;4968454;28;20071;-85
2020/12/15 06:42:07;;;;;;;7.75;3.95;;;10.20;95.10;;;9.83;83.08;99749.16;4968626;28;20062;-85
2020/12/15 06:44:36;;;;;;;;;;;10.30;95.20;;;9.83;83.22;99737.47;4969445;28;20062;-85
2020/12/15 06:47:05;;;;;;;7.15;3.78;;;10.30;95.30;;;9.83;83.01;99749.16;4972199;28;19936;-85
2020/12/15 06:49:35;;;;;;;7.28;4.28;;;10.20;95.20;;;9.85;82.93;99752.50;4972245;28;20505;-85
2020/12/15 06:52:04;;;;;;;8.43;4.32;;;10.30;95.20;;;9.85;83.20;99757.94;4970825;28;20871;-85
2020/12/15 06:54:34;;;;;;;7.07;4.03;;;10.30;95.30;;;9.86;83.11;99747.91;4970482;28;20058;-85
2020/12/15 06:57:07;;;;;;;10.02;4.05;;;10.30;95.20;;;9.88;83.00;99751.28;4971889;28;20463;-85
2020/12/15 06:59:37;;;;;;;9.05;4.60;;;10.30;95.40;;;9.86;83.50;99761.50;4970693;28;20054;-85
2020/12/15 07:02:08;;;;;;;7.90;4.40;;;10.30;95.50;;;9.87;83.68;99758.59;4971946;28;20046;-85
2020/12/15 07:04:45;;;;;;;7.45;4.28;;;10.30;95.60;;;9.87;83.25;99757.75;4970533;28;20051;-85
2020/12/15 07:07:12;;;;;;;7.18;4.72;;;10.30;95.60;;;9.87;83.51;99758.59;4970466;28;20050;-85
2020/12/15 07:09:40;;;;;;;8.63;5.00;;;10.30;95.60;;;9.90;83.12;99763.63;4971990;28;20046;-85
2020/12/15 07:12:17;;;;;;;8.40;4.53;;;10.30;95.50;;;9.84;83.86;99769.84;4951865;29;20114;-85
2020/12/15 07:14:51;;;;;;;8.60;4.70;;;10.40;95.40;;;9.87;83.55;99766.75;4950477;29;20118;-85
2020/12/15 07:17:18;;;;;;;8.75;4.13;;;10.30;95.40;;;9.88;83.31;99767.56;4951693;29;20398;-85
2020/12/15 07:19:45;;;;;;;8.52;4.60;;;10.30;95.50;;;9.90;83.04;99768.22;4950444;29;20083;-85
2020/12/15 07:22:12;;;;;;;8.80;4.63;;;10.40;95.40;;;9.92;83.26;99763.44;4951943;29;20050;-85
2020/12/15 07:24:39;;;;;;;8.43;4.78;;;10.40;95.50;;;9.91;83.67;99772.63;4951640;29;20731;-85
2020/12/15 07:27:06;;;;;;;9.10;4.80;;;10.40;95.30;;;9.91;83.57;99778.06;4951905;29;20063;-85
2020/12/15 07:29:33;;;;;;;8.98;4.10;;;10.40;95.40;;;9.92;83.68;99771.59;4951796;28;20054;-85
2020/12/15 07:32:01;;;;;;;9.80;5.30;;;10.40;95.50;;;9.93;83.40;99781.41;4950518;29;20876;-85
2020/12/15 07:34:28;;;;;;;7.13;4.32;;;10.40;95.60;;;9.93;83.64;99776.81;4950346;29;20137;-85
2020/12/15 07:36:55;;;;;;;7.28;4.63;;;10.40;95.70;;;9.92;83.96;99777.03;4951768;29;20437;-85
2020/12/15 07:39:21;;;;;;;7.22;4.88;;;10.40;95.60;;;9.92;84.02;99779.75;4950376;29;20066;-85
2020/12/15 07:42:01;;;;;;;10.30;4.82;;;10.40;95.70;;;9.88;84.30;99779.31;4951852;28;20075;-85
2020/12/15 07:44:35;;;;;;;7.57;5.10;;;10.40;95.40;;;9.88;84.34;99784.75;4951548;29;20117;-85
2020/12/15 07:47:03;;;;;;;8.93;5.10;;;10.40;95.70;;;9.92;84.02;99775.16;4951651;29;20043;-85
2020/12/15 07:49:31;;;;;;;7.88;4.82;;;10.40;95.70;;;9.93;84.34;99786.84;4951362;29;20508;-85
2020/12/15 07:51:58;;;;;;;7.13;4.88;;;10.40;95.70;;;9.93;83.99;99786.84;4951614;29;20062;-85
2020/12/15 07:54:25;;;;;;;7.20;4.75;;;10.40;95.90;;;9.91;84.44;99786.22;4950091;28;20055;-85
2020/12/15 07:56:53;;;;;;;8.25;4.90;;;10.40;96.00;;;9.88;84.75;99781.16;4951703;28;20500;-85
2020/12/15 07:59:20;;;;;;;8.20;4.78;;;10.50;95.80;;;9.90;84.38;99789.97;4950233;29;20125;-85
2020/12/15 08:01:47;;;;;;;9.38;4.90;;;10.50;95.80;;;9.90;84.74;99798.09;4966379;28;20114;-85
2020/12/15 08:04:16;;;;;;;8.75;4.80;;;10.50;95.70;;;9.92;84.64;99796.06;4951487;29;20043;-85
2020/12/15 08:06:46;;;;;;;8.25;4.07;;;10.70;95.80;;;9.92;84.79;99806.94;4951341;29;20102;-85
2020/12/15 08:09:16;;;;;;;8.55;4.97;;;10.50;95.80;;;9.93;84.80;99805.88;4951636;29;20047;-85
2020/12/15 08:11:45;;;;;;;7.85;4.43;;;10.50;95.70;;;9.94;84.91;99799.41;4951528;29;20086;-85
2020/12/15 08:14:14;;;;;;;6.05;4.47;;;10.50;95.70;;;9.95;84.67;99801.09;4951694;29;20401;-85
2020/12/15 08:16:41;;;;;;;8.27;5.00;;;10.50;95.80;;;9.98;84.77;99809.69;4950847;29;20532;-85
2020/12/15 08:19:10;;;;;;;10.35;5.13;;;10.50;96.00;;;10.01;84.81;99807.59;4966663;28;20142;-85
2020/12/15 08:21:45;;;;;;;9.07;5.68;;;10.50;96.10;;;10.00;84.59;99808.66;4950443;29;20051;-85
2020/12/15 08:24:13;;;;;;;8.00;4.88;;;10.50;96.10;;;9.98;84.84;99806.13;4966435;28;20083;-85
2020/12/15 08:26:42;;;;;;;7.45;4.90;;;10.60;96.20;;;10.01;84.86;99803.00;4951499;28;20051;-85
2020/12/15 08:29:11;;;;;;;8.18;4.75;;;10.50;96.10;;;10.00;84.97;99808.66;4951058;28;20047;-85
2020/12/15 08:31:40;;;;;;;8.32;5.10;;;10.60;96.40;;;9.96;85.21;99814.47;4951077;29;20516;-85
2020/12/15 08:34:13;;;;;;;14.50;5.20;;;10.60;96.00;;;9.97;85.08;99804.44;4951065;29;20062;-85
2020/12/15 08:36:46;;;;;;;8.27;5.20;;;10.60;96.10;;;10.01;85.04;99805.72;4950753;29;20051;-85
2020/12/15 08:39:16;;;;;;;6.82;4.80;;;10.60;96.30;;;9.98;84.92;99806.13;4951233;29;20560;-85
2020/12/15 08:41:49;;;;;;;8.05;4.90;;;10.60;96.10;;;9.97;85.05;99813.44;4949857;29;20696;-85
2020/12/15 08:44:17;;;;;;;7.80;4.88;;;10.60;96.00;;;9.99;85.28;99813.22;4951098;29;20137;-85
2020/12/15 08:46:44;;;;;;;9.45;5.35;;;10.60;95.90;;;10.01;85.16;99819.31;4965527;28;20067;-86
2020/12/15 08:49:13;;;;;;;7.32;5.28;;;10.60;96.00;;;10.01;85.20;99819.31;4950827;29;20066;-86
2020/12/15 08:51:40;;;;;;;7.75;5.13;;;10.60;96.10;;;10.01;85.20;99821.19;4950398;28;20055;-87
2020/12/15 08:54:08;;;;;;;10.45;6.00;;;10.60;96.10;;;9.93;85.94;99819.47;4949645;29;20102;-88
2020/12/15 08:56:36;;;;;;;9.80;5.70;;;10.70;96.00;;;9.96;85.64;99825.34;4949546;29;20055;-87
2020/12/15 08:59:13;;;;;;;7.07;4.90;;;10.70;95.90;;;9.98;85.65;99822.44;4950122;28;20047;-88
2020/12/15 09:01:41;;;;;;;8.13;5.10;;;10.70;96.00;;;10.02;85.68;99817.44;4950358;28;20044;-87
2020/12/15 09:04:09;;;;;;;8.70;5.53;;;10.70;95.90;;;9.99;86.13;99829.53;4949803;29;20043;-88
2020/12/15 09:06:37;;;;;;;8.60;5.40;;;10.70;96.00;;;10.03;85.90;99830.81;4965023;28;20090;-88
2020/12/15 09:09:05;;;;;;;8.15;5.68;;;10.80;96.10;;;10.04;85.81;99832.53;4948703;28;20063;-88
2020/12/15 09:11:33;;;;;;;8.50;5.40;;;10.80;96.00;;;10.06;85.87;99835.03;4950336;28;20051;-87
2020/12/15 09:14:02;;;;;;;7.60;5.28;;;10.80;95.90;;;10.09;85.69;99834.63;4948458;29;20497;-86
2020/12/15 09:16:32;;;;;;;8.95;5.95;;;10.80;96.10;;;10.07;85.91;99840.28;4948787;29;20079;-86
2020/12/15 09:19:11;;;;;;;8.10;5.47;;;10.80;96.20;;;10.08;86.14;99843.84;4931010;29;20051;-86
2020/12/15 09:21:38;;;;;;;7.95;5.45;;;10.80;96.00;;;10.10;85.30;99842.59;4931178;29;20160;-86
2020/12/15 09:24:07;;;;;;;7.45;5.20;;;10.80;95.90;;;10.13;85.31;99861.25;4929427;29;20434;-86
2020/12/15 09:26:38;;;;;;;11.00;5.53;;;10.80;95.90;;;10.15;85.17;99855.63;4930570;29;20554;-86
2020/12/15 09:29:09;;;;;;;9.55;5.65;;;10.80;96.10;;;10.14;85.41;99859.34;4931001;29;20059;-86
2020/12/15 09:31:37;;;;;;;9.27;5.55;;;10.70;96.00;;;10.10;85.43;99858.91;4929422;29;20048;-86
2020/12/15 09:34:04;;;;;;;10.57;5.70;;;10.80;96.00;;;10.09;85.59;99865.41;4930717;29;20040;-86
2020/12/15 09:36:31;;;;;;;9.05;5.28;;;10.80;95.90;;;10.09;85.87;99872.69;4929297;29;20083;-86
2020/12/15 09:38:58;;;;;;;8.93;5.75;;;10.80;95.90;;;10.09;86.44;99865.41;4930784;29;20047;-86
2020/12/15 09:41:25;;;;;;;8.13;5.32;;;10.80;96.20;;;10.13;85.91;99865.84;4930799;29;20044;-86
2020/12/15 09:43:53;;;;;;;8.23;4.70;;;10.80;96.00;;;10.13;86.04;99869.41;4929272;29;20469;-87
2020/12/15 09:46:20;;;;;;;9.30;5.32;;;10.80;96.10;;;10.12;85.86;99867.69;4930329;29;20055;-87
2020/12/15 09:48:47;;;;;;;9.45;5.30;;;10.80;96.00;;;10.15;85.69;99866.50;4930478;29;20082;-87
2020/12/15 09:51:13;;;;;;;8.30;5.15;;;10.80;96.00;;;10.18;85.68;99860.63;4928859;29;20476;-86
2020/12/15 09:53:41;;;;;;;6.65;4.97;;;10.80;96.10;;;10.19;85.47;99870.50;4929097;29;20051;-86
2020/12/15 09:56:08;;;;;;;7.65;4.75;;;10.80;96.10;;;10.17;86.36;99876.13;4929148;29;20470;-86
2020/12/15 09:58:35;;;;;;;9.77;5.50;;;10.90;96.50;;;10.17;85.93;99875.28;4930537;29;20043;-86
2020/12/15 10:01:04;;;;;;;7.75;4.85;;;10.90;96.20;;;10.20;86.25;99879.47;4930583;29;20062;-86
2020/12/15 10:03:31;;;;;;;7.32;4.72;;;10.90;96.40;;;10.17;86.12;99880.72;4945389;28;20047;-86
2020/12/15 10:05:58;;;;;;;10.25;5.40;;;10.90;96.40;;;10.21;85.69;99881.16;4929425;29;20064;-87
2020/12/15 10:08:25;;;;;;;8.75;5.25;;;10.90;96.50;;;10.22;85.87;99885.56;4931032;29;20106;-88
2020/12/15 10:10:52;;;;;;;8.93;5.00;;;10.90;96.40;;;10.22;85.89;99885.56;4929950;29;20062;-87
2020/12/15 10:13:21;;;;;;;8.43;4.50;;;10.90;96.40;;;10.18;86.29;99880.53;4945566;29;20102;-87
2020/12/15 10:15:48;;;;;;;7.85;4.80;;;10.90;96.50;;;10.17;86.21;99881.56;4948704;29;20059;-87
2020/12/15 10:18:16;;;;;;;6.30;4.07;;;10.90;96.40;;;10.21;86.33;99881.16;4949852;29;20072;-87
2020/12/15 10:20:43;;;;;;;7.40;4.40;;;10.90;96.40;;;10.20;86.35;99880.31;4947146;28;20060;-87
2020/12/15 10:23:10;;;;;;;9.90;5.00;;;10.90;96.40;;;10.21;86.78;99882.00;4932831;29;20147;-88
2020/12/15 10:25:37;;;;;;;8.23;4.78;;;10.90;96.60;;;10.21;86.48;99881.16;4945096;29;20137;-87
2020/12/15 10:28:04;;;;;;;7.63;4.20;;;10.90;96.50;;;10.24;86.45;99880.75;4942689;29;20067;-85
2020/12/15 10:30:30;;;;;;;7.50;4.25;;;10.90;96.50;;;10.27;85.82;99889.38;4951900;28;20047;-85
2020/12/15 10:32:57;;;;;;;7.80;4.93;;;10.90;96.70;;;10.28;86.10;99882.91;4953453;28;20055;-85
2020/12/15 10:35:25;;;;;;;9.40;4.80;;;10.90;96.80;;;10.28;86.38;99882.03;4937884;29;20070;-85
2020/12/15 10:37:52;;;;;;;6.90;4.53;;;10.90;96.80;;;10.31;85.72;99882.50;4941225;29;20476;-86
2020/12/15 10:40:19;;;;;;;9.20;4.47;;;10.90;96.70;;;10.29;86.73;99890.00;4949706;29;20055;-86